createdAt,value
2017-10-14T00:00:26.245Z,69.00
2017-10-14T00:02:53.689Z,69.00
2017-10-14T00:05:21.132Z,68.90
2017-10-14T00:07:48.567Z,69.00
2017-10-14T00:10:16.000Z,69.40
2017-10-14T00:12:43.448Z,69.40
2017-10-14T00:15:10.893Z,69.60
2017-10-14T00:17:38.337Z,70.10
2017-10-14T00:20:05.800Z,70.10
2017-10-14T00:22:33.244Z,69.90
2017-10-14T00:25:00.677Z,69.80
2017-10-14T00:27:28.126Z,69.40
2017-10-14T00:29:55.561Z,69.50
2017-10-14T00:32:23.018Z,69.60
2017-10-14T00:34:50.459Z,69.50
2017-10-14T00:37:18.668Z,69.40
2017-10-14T00:39:46.117Z,69.40
2017-10-14T00:42:13.561Z,70.10
2017-10-14T00:44:41.011Z,69.60
2017-10-14T00:47:08.455Z,69.30
2017-10-14T00:49:35.919Z,69.00
2017-10-14T00:52:04.121Z,69.00
2017-10-14T00:54:31.564Z,68.90
2017-10-14T00:56:59.004Z,69.20
2017-10-14T00:59:26.660Z,69.60
2017-10-14T01:01:54.108Z,70.20
2017-10-14T01:04:21.567Z,69.80
2017-10-14T01:06:49.113Z,69.40
2017-10-14T01:09:16.574Z,69.40
2017-10-14T01:11:44.772Z,69.90
2017-10-14T01:14:12.229Z,69.90
2017-10-14T01:16:39.672Z,69.60
2017-10-14T01:19:07.126Z,69.50
2017-10-14T01:21:34.579Z,68.90
2017-10-14T01:24:02.425Z,69.20
2017-10-14T01:26:29.857Z,69.10
2017-10-14T01:28:57.288Z,69.00
2017-10-14T01:31:24.733Z,69.00
2017-10-14T01:33:52.169Z,68.90
2017-10-14T01:36:19.732Z,69.00
2017-10-14T01:38:47.969Z,68.80
2017-10-14T01:41:16.186Z,68.80
2017-10-14T01:43:43.632Z,68.80
2017-10-14T01:46:11.093Z,69.00
2017-10-14T01:48:38.540Z,69.00
2017-10-14T01:51:05.980Z,68.70
2017-10-14T01:53:33.425Z,68.70
2017-10-14T01:56:00.868Z,68.90
2017-10-14T01:58:28.412Z,68.90
2017-10-14T02:00:55.960Z,68.80
2017-10-14T02:03:23.410Z,68.70
2017-10-14T02:05:50.867Z,68.70
2017-10-14T02:08:19.077Z,68.80
2017-10-14T02:10:46.521Z,68.80
2017-10-14T02:13:13.992Z,68.50
2017-10-14T02:15:41.455Z,68.70
2017-10-14T02:18:09.660Z,68.70
2017-10-14T02:20:37.106Z,68.60
2017-10-14T02:23:04.564Z,68.90
2017-10-14T02:25:32.005Z,69.30
2017-10-14T02:27:59.465Z,69.00
2017-10-14T02:30:26.905Z,69.00
2017-10-14T02:32:54.365Z,69.00
2017-10-14T02:35:22.568Z,69.50
2017-10-14T02:37:50.023Z,69.50
2017-10-14T02:40:17.577Z,69.00
2017-10-14T02:42:45.013Z,69.30
2017-10-14T02:45:12.448Z,69.00
2017-10-14T02:47:39.899Z,68.90
2017-10-14T02:50:07.340Z,69.40
2017-10-14T02:52:34.793Z,69.00
2017-10-14T02:55:02.228Z,69.50
2017-10-14T02:57:29.677Z,69.50
2017-10-14T02:59:57.134Z,69.20
2017-10-14T03:02:24.589Z,69.20
2017-10-14T03:04:52.795Z,70.70
2017-10-14T03:07:20.236Z,70.80
2017-10-14T03:09:47.747Z,70.90
2017-10-14T03:12:15.964Z,70.30
2017-10-14T03:14:43.418Z,70.60
2017-10-14T03:17:10.868Z,70.60
2017-10-14T03:19:38.308Z,69.60
2017-10-14T03:22:05.778Z,70.60
2017-10-14T03:24:33.217Z,70.90
2017-10-14T03:27:00.639Z,71.40
2017-10-14T03:29:28.080Z,71.40
2017-10-14T03:31:55.516Z,71.60
2017-10-14T03:34:24.582Z,71.80
2017-10-14T03:36:52.058Z,71.80
2017-10-14T03:39:20.265Z,72.10
2017-10-14T03:41:47.729Z,72.10
2017-10-14T03:44:15.250Z,72.20
2017-10-14T03:46:43.519Z,72.20
2017-10-14T03:49:10.951Z,72.20
2017-10-14T03:51:38.375Z,72.20
2017-10-14T03:54:05.824Z,72.10
2017-10-14T03:56:33.256Z,71.70
2017-10-14T03:59:00.706Z,71.30
2017-10-14T04:01:28.131Z,71.60
2017-10-14T04:03:55.573Z,71.70
2017-10-14T04:06:23.013Z,71.70
2017-10-14T04:08:50.460Z,71.60
2017-10-14T04:11:17.892Z,72.00
2017-10-14T04:13:46.101Z,71.80
2017-10-14T04:16:13.553Z,71.80
2017-10-14T04:18:41.906Z,71.70
2017-10-14T04:21:09.311Z,71.10
2017-10-14T04:23:36.745Z,71.50
2017-10-14T04:26:04.952Z,71.40
2017-10-14T04:28:32.398Z,71.40
2017-10-14T04:31:00.627Z,71.50
2017-10-14T04:33:28.072Z,71.50
2017-10-14T04:35:55.537Z,71.60
2017-10-14T04:38:22.952Z,71.90
2017-10-14T04:40:51.160Z,72.30
2017-10-14T04:43:18.584Z,72.40
2017-10-14T04:45:46.020Z,72.10
2017-10-14T04:48:13.454Z,71.50
2017-10-14T04:50:40.904Z,71.10
2017-10-14T04:53:08.353Z,71.00
2017-10-14T04:55:35.799Z,71.00
2017-10-14T04:58:03.220Z,71.30
2017-10-14T05:00:30.676Z,71.40
2017-10-14T05:02:58.179Z,71.00
2017-10-14T05:05:25.609Z,70.70
2017-10-14T05:07:53.038Z,71.00
2017-10-14T05:10:21.239Z,70.50
2017-10-14T05:12:49.451Z,71.20
2017-10-14T05:15:16.892Z,71.20
2017-10-14T05:17:44.449Z,71.40
2017-10-14T05:20:11.864Z,71.30
2017-10-14T05:22:39.296Z,71.10
2017-10-14T05:25:06.732Z,71.20
2017-10-14T05:27:34.177Z,71.20
2017-10-14T05:30:01.629Z,70.90
2017-10-14T05:32:29.063Z,71.20
2017-10-14T05:34:56.539Z,71.10
2017-10-14T05:37:23.998Z,71.20
2017-10-14T05:39:51.423Z,71.20
2017-10-14T05:42:18.864Z,71.10
2017-10-14T05:44:46.301Z,71.20
2017-10-14T05:47:14.497Z,71.40
2017-10-14T05:49:42.702Z,71.70
2017-10-14T05:52:10.137Z,71.70
2017-10-14T05:54:37.636Z,71.60
2017-10-14T05:57:05.093Z,71.90
2017-10-14T05:59:33.332Z,71.40
2017-10-14T06:02:02.300Z,71.10
2017-10-14T06:04:29.735Z,71.00
2017-10-14T06:06:57.172Z,70.70
2017-10-14T06:09:24.623Z,70.60
2017-10-14T06:11:52.084Z,70.50
2017-10-14T06:14:19.519Z,70.90
2017-10-14T06:16:46.991Z,71.30
2017-10-14T06:19:15.194Z,71.20
2017-10-14T06:21:42.644Z,71.20
2017-10-14T06:24:10.095Z,71.10
2017-10-14T06:26:38.305Z,70.90
2017-10-14T06:29:06.509Z,70.90
2017-10-14T06:31:33.944Z,70.90
2017-10-14T06:34:01.393Z,70.90
2017-10-14T06:36:28.833Z,71.40
2017-10-14T06:38:56.332Z,71.60
2017-10-14T06:41:24.542Z,72.00
2017-10-14T06:43:51.998Z,71.90
2017-10-14T06:46:19.441Z,72.10
2017-10-14T06:48:46.905Z,71.00
2017-10-14T06:51:14.332Z,70.70
2017-10-14T06:53:41.891Z,70.40
2017-10-14T06:56:09.443Z,70.00
2017-10-14T06:58:36.895Z,69.30
2017-10-14T07:01:04.333Z,68.70
2017-10-14T07:03:31.840Z,68.30
2017-10-14T07:05:59.312Z,68.30
2017-10-14T07:08:26.762Z,67.20
2017-10-14T07:10:54.956Z,66.60
2017-10-14T07:13:22.400Z,65.90
2017-10-14T07:15:49.845Z,65.40
2017-10-14T07:18:17.289Z,63.70
2017-10-14T07:20:44.720Z,63.20
2017-10-14T07:23:12.155Z,63.70
2017-10-14T07:25:39.609Z,63.20
2017-10-14T07:28:07.055Z,62.10
2017-10-14T07:30:34.491Z,61.40
2017-10-14T07:33:01.945Z,61.00
2017-10-14T07:35:29.427Z,60.20
2017-10-14T07:37:56.874Z,59.30
2017-10-14T07:40:24.320Z,59.40
2017-10-14T07:42:52.525Z,58.10
2017-10-14T07:45:19.978Z,57.80
2017-10-14T07:47:47.408Z,57.20
2017-10-14T07:50:14.856Z,56.90
2017-10-14T07:52:42.283Z,56.30
2017-10-14T07:55:09.735Z,56.70
2017-10-14T07:57:37.158Z,56.60
2017-10-14T08:00:04.614Z,55.50
2017-10-14T08:02:32.048Z,54.80
2017-10-14T08:04:59.492Z,54.60
2017-10-14T08:07:26.936Z,54.80
2017-10-14T08:09:54.379Z,54.00
2017-10-14T08:12:21.820Z,54.40
2017-10-14T08:14:49.320Z,54.30
2017-10-14T08:17:16.777Z,55.00
2017-10-14T08:19:45.001Z,53.00
2017-10-14T08:22:12.433Z,52.90
2017-10-14T08:24:39.868Z,53.40
2017-10-14T08:27:07.303Z,52.90
2017-10-14T08:29:34.750Z,53.70
2017-10-14T08:32:02.197Z,53.90
2017-10-14T08:34:29.640Z,53.00
2017-10-14T08:36:57.097Z,53.00
2017-10-14T08:39:24.511Z,53.30
2017-10-14T08:41:51.964Z,53.80
2017-10-14T08:44:19.383Z,52.80
2017-10-14T08:46:46.829Z,53.00
2017-10-14T08:49:14.268Z,53.40
2017-10-14T08:51:41.703Z,53.20
2017-10-14T08:54:09.156Z,53.00
2017-10-14T08:56:36.622Z,53.30
2017-10-14T08:59:04.056Z,52.80
2017-10-14T09:01:31.496Z,52.70
2017-10-14T09:03:58.929Z,52.80
2017-10-14T09:06:26.388Z,52.80
2017-10-14T09:08:54.601Z,53.00
2017-10-14T09:11:22.055Z,53.00
2017-10-14T09:13:49.467Z,53.80
2017-10-14T09:16:17.690Z,54.10
2017-10-14T09:18:45.160Z,54.10
2017-10-14T09:21:13.396Z,54.20
2017-10-14T09:23:40.929Z,54.10
2017-10-14T09:26:08.357Z,54.10
2017-10-14T09:28:36.239Z,54.80
2017-10-14T09:31:03.736Z,54.50
2017-10-14T09:33:31.163Z,54.40
2017-10-14T09:35:59.357Z,53.80
2017-10-14T09:38:26.852Z,53.80
2017-10-14T09:40:54.285Z,53.30
2017-10-14T09:43:21.858Z,52.60
2017-10-14T09:45:49.280Z,52.30
2017-10-14T09:48:16.747Z,51.50
2017-10-14T09:50:44.165Z,51.00
2017-10-14T09:53:11.636Z,51.50
2017-10-14T09:55:39.068Z,51.60
2017-10-14T09:58:06.521Z,50.70
2017-10-14T10:00:33.970Z,50.10
2017-10-14T10:03:01.450Z,50.00
2017-10-14T10:05:29.640Z,48.70
2017-10-14T10:07:57.593Z,49.30
2017-10-14T10:10:25.054Z,48.10
2017-10-14T10:12:52.520Z,47.70
2017-10-14T10:15:19.957Z,48.20
2017-10-14T10:17:47.395Z,47.60
2017-10-14T10:20:14.842Z,47.40
2017-10-14T10:22:42.310Z,46.60
2017-10-14T10:25:09.755Z,45.60
2017-10-14T10:27:37.176Z,47.30
2017-10-14T10:30:04.616Z,47.10
2017-10-14T10:32:32.058Z,46.30
2017-10-14T10:34:59.501Z,46.70
2017-10-14T10:37:26.935Z,47.20
2017-10-14T10:39:54.376Z,46.80
2017-10-14T10:42:21.804Z,46.50
2017-10-14T10:44:49.242Z,46.80
2017-10-14T10:47:16.685Z,46.60
2017-10-14T10:49:44.128Z,47.60
2017-10-14T10:52:11.552Z,47.70
2017-10-14T10:54:38.996Z,48.30
2017-10-14T10:57:06.429Z,48.50
2017-10-14T10:59:34.639Z,50.20
2017-10-14T11:02:02.065Z,50.20
2017-10-14T11:04:29.504Z,50.50
2017-10-14T11:06:56.943Z,50.70
2017-10-14T11:09:24.405Z,51.40
2017-10-14T11:11:51.870Z,51.70
2017-10-14T11:14:20.067Z,52.80
2017-10-14T11:16:47.500Z,52.80
2017-10-14T11:19:15.696Z,53.30
2017-10-14T11:21:43.132Z,53.30
2017-10-14T11:24:11.861Z,53.50
2017-10-14T11:26:40.085Z,54.70
2017-10-14T11:29:07.575Z,54.70
2017-10-14T11:31:35.800Z,55.30
2017-10-14T11:34:03.241Z,55.20
2017-10-14T11:36:30.680Z,55.50
2017-10-14T11:38:58.154Z,55.30
2017-10-14T11:41:28.817Z,54.70
2017-10-14T11:43:56.259Z,54.60
2017-10-14T11:46:23.701Z,54.40
2017-10-14T11:48:51.140Z,54.20
2017-10-14T11:51:18.586Z,53.90
2017-10-14T11:53:46.027Z,54.70
2017-10-14T11:56:13.489Z,53.70
2017-10-14T11:58:40.933Z,53.10
2017-10-14T12:01:08.373Z,53.20
2017-10-14T12:03:35.837Z,52.70
2017-10-14T12:06:03.277Z,53.50
2017-10-14T12:08:30.718Z,53.80
2017-10-14T12:10:58.157Z,53.80
2017-10-14T12:13:25.594Z,52.90
2017-10-14T12:15:53.028Z,53.10
2017-10-14T12:18:20.473Z,52.40
2017-10-14T12:20:47.925Z,52.50
2017-10-14T12:23:15.447Z,52.90
2017-10-14T12:25:42.901Z,53.20
2017-10-14T12:28:10.335Z,52.80
2017-10-14T12:30:37.773Z,52.80
2017-10-14T12:33:05.336Z,52.10
2017-10-14T12:35:32.768Z,52.20
2017-10-14T12:38:00.228Z,51.80
2017-10-14T12:40:27.661Z,51.40
2017-10-14T12:42:55.118Z,51.80
2017-10-14T12:45:22.649Z,51.80
2017-10-14T12:47:50.096Z,51.80
2017-10-14T12:50:17.540Z,52.10
2017-10-14T12:52:44.984Z,52.00
2017-10-14T12:55:12.408Z,52.30
2017-10-14T12:57:39.871Z,52.30
2017-10-14T13:00:07.311Z,51.50
2017-10-14T13:02:34.757Z,51.70
2017-10-14T13:05:02.183Z,52.10
2017-10-14T13:07:29.624Z,52.40
2017-10-14T13:09:57.065Z,52.50
2017-10-14T13:12:24.504Z,52.40
2017-10-14T13:14:51.960Z,52.50
2017-10-14T13:17:19.422Z,52.80
2017-10-14T13:19:47.635Z,52.40
2017-10-14T13:22:15.098Z,52.40
2017-10-14T13:24:42.532Z,51.90
2017-10-14T13:27:10.036Z,52.30
2017-10-14T13:29:37.453Z,52.30
2017-10-14T13:32:04.904Z,51.80
2017-10-14T13:34:33.127Z,51.40
2017-10-14T13:37:00.557Z,51.40
2017-10-14T13:39:28.009Z,51.60
2017-10-14T13:41:55.444Z,51.60
2017-10-14T13:44:22.885Z,51.60
2017-10-14T13:46:50.312Z,51.50
2017-10-14T13:49:17.785Z,52.00
2017-10-14T13:51:45.238Z,52.00
2017-10-14T13:54:12.672Z,52.50
2017-10-14T13:56:40.111Z,52.40
2017-10-14T13:59:07.561Z,52.60
2017-10-14T14:01:35.001Z,52.70
2017-10-14T14:04:02.453Z,53.00
2017-10-14T14:06:29.889Z,52.90
2017-10-14T14:08:57.435Z,52.70
2017-10-14T14:11:24.880Z,52.60
2017-10-14T14:13:52.318Z,53.10
2017-10-14T14:16:19.768Z,53.20
2017-10-14T14:18:47.207Z,53.30
2017-10-14T14:21:14.661Z,53.50
2017-10-14T14:23:42.101Z,52.20
2017-10-14T14:26:09.571Z,52.40
2017-10-14T14:28:37.766Z,52.20
2017-10-14T14:31:05.204Z,52.20
2017-10-14T14:33:32.632Z,52.80
2017-10-14T14:36:00.087Z,52.10
2017-10-14T14:38:27.517Z,51.80
2017-10-14T14:40:54.947Z,51.80
2017-10-14T14:43:22.401Z,51.80
2017-10-14T14:45:49.853Z,51.70
2017-10-14T14:48:18.043Z,51.80
2017-10-14T14:50:45.484Z,51.80
2017-10-14T14:53:12.915Z,51.70
2017-10-14T14:55:40.399Z,51.70
2017-10-14T14:58:07.826Z,51.70
2017-10-14T15:00:35.273Z,52.10
2017-10-14T15:03:02.822Z,52.10
2017-10-14T15:05:30.263Z,52.20
2017-10-14T15:07:57.688Z,52.20
2017-10-14T15:10:25.171Z,52.10
2017-10-14T15:12:52.600Z,52.10
2017-10-14T15:15:20.053Z,52.30
2017-10-14T15:17:47.496Z,52.10
2017-10-14T15:20:14.927Z,52.40
2017-10-14T15:22:42.590Z,52.50
2017-10-14T15:25:10.045Z,53.10
2017-10-14T15:27:37.491Z,53.60
2017-10-14T15:30:04.920Z,53.80
2017-10-14T15:32:32.366Z,54.00
2017-10-14T15:34:59.827Z,54.10
2017-10-14T15:37:27.256Z,54.50
2017-10-14T15:39:54.684Z,54.50
2017-10-14T15:42:22.141Z,54.60
2017-10-14T15:44:49.563Z,54.50
2017-10-14T15:47:17.009Z,54.50
2017-10-14T15:49:45.225Z,55.00
2017-10-14T15:52:12.673Z,54.90
2017-10-14T15:54:40.102Z,55.00
2017-10-14T15:57:07.537Z,55.10
2017-10-14T15:59:34.972Z,55.30
2017-10-14T16:04:36.416Z,55.70
2017-10-14T16:07:03.865Z,55.80
2017-10-14T16:09:31.298Z,56.10
2017-10-14T16:11:58.738Z,56.20
2017-10-14T16:14:26.172Z,56.40
2017-10-14T16:16:53.617Z,56.60
2017-10-14T16:19:21.065Z,56.70
2017-10-14T16:21:48.504Z,56.80
2017-10-14T16:24:15.956Z,56.90
2017-10-14T16:26:43.393Z,57.10
2017-10-14T16:29:10.819Z,57.30
2017-10-14T16:31:38.265Z,57.80
2017-10-14T16:34:05.708Z,57.60
2017-10-14T16:36:33.144Z,58.10
2017-10-14T16:39:00.598Z,57.80
2017-10-14T16:41:28.802Z,59.10
2017-10-14T16:43:56.259Z,59.10
2017-10-14T16:46:23.695Z,59.00
2017-10-14T16:48:51.162Z,59.50
2017-10-14T16:51:18.608Z,59.20
2017-10-14T16:53:46.068Z,59.30
2017-10-14T16:56:13.513Z,59.70
2017-10-14T16:58:40.951Z,60.10
2017-10-14T17:01:09.175Z,60.80
2017-10-14T17:03:36.625Z,60.80
2017-10-14T17:06:04.087Z,61.30
2017-10-14T17:08:32.305Z,61.90
2017-10-14T17:10:59.736Z,61.90
2017-10-14T17:13:27.184Z,62.00
2017-10-14T17:15:54.639Z,62.50
2017-10-14T17:18:22.096Z,62.90
2017-10-14T17:20:49.540Z,63.10
2017-10-14T17:23:16.997Z,63.40
2017-10-14T17:25:45.205Z,65.20
2017-10-14T17:28:12.655Z,64.70
2017-10-14T17:30:40.101Z,64.60
2017-10-14T17:33:07.555Z,64.70
2017-10-14T17:35:35.016Z,65.10
2017-10-14T17:38:02.452Z,65.50
2017-10-14T17:40:29.897Z,65.90
2017-10-14T17:42:57.344Z,66.30
2017-10-14T17:45:24.800Z,66.70
2017-10-14T17:47:52.257Z,66.80
2017-10-14T17:50:19.702Z,67.20
2017-10-14T17:52:47.188Z,67.40
2017-10-14T17:55:15.411Z,67.90
2017-10-14T17:57:42.869Z,68.00
2017-10-14T18:00:10.357Z,67.90
2017-10-14T18:02:37.985Z,68.20
2017-10-14T18:05:05.456Z,68.20
2017-10-14T18:07:32.937Z,68.50
2017-10-14T18:10:00.394Z,68.60
2017-10-14T18:12:27.872Z,68.70
2017-10-14T18:14:55.334Z,68.70
2017-10-14T18:17:22.808Z,68.70
2017-10-14T18:19:50.262Z,68.60
2017-10-14T18:22:17.701Z,68.70
2017-10-14T18:24:45.146Z,68.70
2017-10-14T18:27:12.626Z,68.80
2017-10-14T18:29:40.076Z,68.80
2017-10-14T18:32:07.530Z,68.80
2017-10-14T18:34:34.987Z,68.80
2017-10-14T18:37:02.445Z,68.90
2017-10-14T18:39:29.908Z,68.90
2017-10-14T18:41:57.827Z,69.00
2017-10-14T18:44:25.248Z,69.30
2017-10-14T18:46:52.694Z,69.00
2017-10-14T18:49:20.136Z,69.00
2017-10-14T18:51:47.593Z,69.20
2017-10-14T18:54:15.141Z,69.80
2017-10-14T18:56:42.586Z,69.50
2017-10-14T18:59:10.028Z,69.40
2017-10-14T19:01:37.512Z,69.40
2017-10-14T19:04:05.723Z,70.00
2017-10-14T19:06:33.169Z,70.00
2017-10-14T19:09:00.621Z,70.60
2017-10-14T19:11:28.079Z,70.10
2017-10-14T19:13:55.526Z,70.40
2017-10-14T19:16:23.084Z,70.80
2017-10-14T19:18:50.553Z,70.90
2017-10-14T19:21:18.009Z,71.30
2017-10-14T19:23:45.453Z,71.00
2017-10-14T19:26:12.957Z,71.00
2017-10-14T19:28:40.496Z,71.20
2017-10-14T19:31:07.935Z,71.80
2017-10-14T19:33:35.381Z,71.70
2017-10-14T19:36:02.829Z,72.00
2017-10-14T19:38:30.286Z,72.40
2017-10-14T19:40:57.764Z,72.40
2017-10-14T19:43:25.220Z,72.30
2017-10-14T19:45:52.748Z,72.30
2017-10-14T19:48:20.222Z,72.30
2017-10-14T19:50:48.454Z,72.30
2017-10-14T19:53:15.908Z,72.20
2017-10-14T19:55:43.355Z,72.00
2017-10-14T19:58:10.801Z,71.90
2017-10-14T20:00:38.254Z,71.80
2017-10-14T20:03:05.728Z,71.80
2017-10-14T20:05:33.177Z,71.70
2017-10-14T20:08:00.616Z,71.50
2017-10-14T20:10:28.077Z,71.80
2017-10-14T20:12:55.626Z,71.70
2017-10-14T20:15:23.062Z,71.90
2017-10-14T20:17:50.517Z,72.10
2017-10-14T20:20:17.968Z,71.80
2017-10-14T20:22:45.472Z,71.80
2017-10-14T20:25:13.676Z,71.50
2017-10-14T20:27:41.129Z,71.40
2017-10-14T20:30:08.565Z,71.40
2017-10-14T20:32:36.017Z,71.30
2017-10-14T20:35:03.474Z,71.30
2017-10-14T20:37:30.945Z,72.20
2017-10-14T20:39:58.385Z,71.70
2017-10-14T20:42:25.816Z,72.00
2017-10-14T20:44:53.274Z,72.10
2017-10-14T20:47:20.719Z,72.20
2017-10-14T20:49:48.177Z,72.30
2017-10-14T20:52:15.622Z,72.60
2017-10-14T20:54:43.079Z,71.90
2017-10-14T20:57:10.520Z,72.10
2017-10-14T20:59:37.992Z,71.90
2017-10-14T21:02:06.200Z,71.40
2017-10-14T21:04:33.657Z,71.40
2017-10-14T21:07:01.103Z,71.20
2017-10-14T21:09:28.543Z,71.10
2017-10-14T21:11:56.046Z,71.00
2017-10-14T21:14:23.472Z,70.60
2017-10-14T21:16:51.682Z,71.80
2017-10-14T21:19:19.123Z,71.80
2017-10-14T21:21:46.589Z,71.30
2017-10-14T21:24:14.028Z,71.60
2017-10-14T21:26:41.556Z,71.70
2017-10-14T21:29:09.077Z,71.90
2017-10-14T21:31:36.514Z,71.90
2017-10-14T21:34:03.967Z,71.80
2017-10-14T21:36:31.416Z,71.50
2017-10-14T21:38:58.869Z,71.40
2017-10-14T21:41:26.329Z,71.80
2017-10-14T21:43:53.795Z,71.40
2017-10-14T21:46:21.997Z,71.50
2017-10-14T21:48:49.436Z,71.50
2017-10-14T21:51:16.939Z,71.40
2017-10-14T21:53:44.372Z,71.40
2017-10-14T21:56:11.820Z,71.20
2017-10-14T21:58:39.255Z,71.00
2017-10-14T22:01:06.700Z,70.70
2017-10-14T22:03:34.144Z,70.80
2017-10-14T22:06:01.588Z,70.70
2017-10-14T22:08:29.042Z,70.60
2017-10-14T22:10:57.255Z,71.10
2017-10-14T22:13:24.706Z,70.60
2017-10-14T22:15:52.133Z,70.80
2017-10-14T22:18:19.582Z,70.80
2017-10-14T22:20:47.028Z,70.60
2017-10-14T22:23:14.469Z,70.70
2017-10-14T22:25:41.905Z,70.50
2017-10-14T22:28:09.339Z,70.40
2017-10-14T22:30:36.800Z,70.30
2017-10-14T22:33:04.257Z,70.50
2017-10-14T22:35:31.708Z,70.30
2017-10-14T22:37:59.160Z,70.00
2017-10-14T22:40:26.611Z,70.00
2017-10-14T22:42:54.853Z,70.10
2017-10-14T22:45:22.287Z,70.10
2017-10-14T22:47:49.728Z,70.20
2017-10-14T22:50:17.180Z,70.10
2017-10-14T22:52:44.625Z,69.90
2017-10-14T22:55:12.082Z,70.50
2017-10-14T22:57:39.524Z,70.10
2017-10-14T23:00:06.970Z,71.20
2017-10-14T23:02:34.416Z,72.00
2017-10-14T23:05:01.875Z,71.80
2017-10-14T23:07:30.080Z,72.00
2017-10-14T23:09:57.530Z,71.90
2017-10-14T23:12:24.974Z,72.10
2017-10-14T23:14:52.456Z,72.10
2017-10-14T23:17:20.656Z,72.00
2017-10-14T23:19:48.089Z,71.90
2017-10-14T23:22:15.536Z,71.70
2017-10-14T23:24:42.974Z,71.40
2017-10-14T23:27:10.436Z,71.30
2017-10-14T23:29:37.872Z,71.30
2017-10-14T23:32:05.313Z,71.70
2017-10-14T23:34:32.797Z,71.40
2017-10-14T23:37:00.245Z,71.30
2017-10-14T23:39:27.671Z,71.30
2017-10-14T23:41:55.112Z,71.30
2017-10-14T23:44:22.571Z,71.10
2017-10-14T23:46:50.034Z,71.10
2017-10-14T23:49:17.462Z,71.20
2017-10-14T23:51:44.929Z,71.20
2017-10-14T23:54:12.378Z,71.10
2017-10-14T23:56:39.831Z,71.70
2017-10-14T23:59:07.264Z,71.40
